Pagrindinis puslapis
METAR-TAF:

METAR-TAF

Oro uostai :

Bethel, Aliaska, Jungtinės Amerikos Valstijos

platuma: 60-46-47N, ilguma: 161-50-16W, Aukštis: 38 m

Dabartinis oras

Ataskaita buvo paskelbta 32 minutes, ne 16:53 UTC
Vėjas 21 kt iš Šiaurės/Šiaurės Vakarų
Temperatūra -28°C
Drėgmė 68%
Slėgis 994 hPa
Matomumas: 16.1 km
Giedras dangus

METAR: PABE 291653Z 33021KT 10SM CLR M28/M32 A2934 RMK AO2 PK WND 33026/1621 SLP940 T12781317 $

Laikas: 08:25 (17:25 UTC)

Prognozė

Ataskaita buvo paskelbta 5 valandos ir 44 minutes, ne 11:41 UTC
Prognozė galioja nuo 29 metu 12 UTC su 30 metu 12 UTC
Vėjas 15 kt iš Šiaurės/Šiaurės Vakarų su gūsio iki 25 kt
Matomumas: 10 km
Apsiniaukę ne aukštis 5000 ft
Nuo 30 metu 0300 UTC
Vėjas 12 kt iš Šiaurės/Šiaurės Vakarų
Matomumas: 10 km
Giedras dangus

TAF: PABE 291141Z 2912/3012 34015G25KT P6SM OVC050 FM300300 34012KT P6SM SKC

Orai ataskaitas ir orų prognozės (METAR, TAF).

turimą stotys yra geltonos ir raudonos taškus žemėlapyje.

Perkelti pele per norėdami pamatyti stoties vardą.

Tada spustelėkite, norėdami matyti oro stebėjimo ir prognozės.

Norėdami pakeisti žemėlapį: spustelėkite ant žalios mygtukų su juodo kryžiaus žemyn,; žalią mygtuką su brūkšneliu, jei norite nutolinti; arba žalių rodyklių gretimoms žemėlapius.


METAR-TAF: